Terminal Aerodrome Forecast
Issued by NWS New Orleans/Baton Rouge, LA

Home | Current Version | Previous Version | Text Only | Print | Product List | Glossary On
Versions: 1 2 3 4 5 6 7 8 9 10 11 12 13 14 15 16 17 18 19
000
FTUS44 KLIX 221413 AAA
TAFBTR
TAF AMD
KBTR 221413Z 2214/2312 33005KT 6SM -RA BKN080
     FM221600 26021KT P6SM SKC
     FM222300 29021KT P6SM SKC
     FM230800 31009KT P6SM SKC=

USA.gov is the U.S. government's official web portal to all federal, state and local government web resources and services.